Time;durP1;ratioP1;P1;durP2;ratioP2;P2;SDS_P1;SDS_P2;PMS_P1;PMS_P2;Temp;Humidity;BMP_temperature;BMP_pressure;BME280_temperature;BME280_humidity;BME280_pressure;Samples;Min_cycle;Max_cycle;Signal;HPM_P1;HPM_P2
2023/08/25 00:00:09;;;;;;;;;;;;;;;23.68;100.00;97678.31;5039370;28;19921;-79
2023/08/25 00:02:36;;;;;;;;;;;;;;;23.31;100.00;97682.41;5041803;28;20442;-79
2023/08/25 00:05:03;;;;;;;;;;;;;;;23.19;100.00;97683.31;5034783;28;19976;-79
2023/08/25 00:07:30;;;;;;;;;;;;;;;23.53;100.00;97685.38;5042025;28;19933;-79
2023/08/25 00:09:56;;;;;;;;;;;;;;;24.01;100.00;97700.53;5044047;28;19921;-79
2023/08/25 00:12:23;;;;;;;;;;;;;;;24.04;100.00;97697.09;5041751;28;19913;-79
2023/08/25 00:14:49;;;;;;;;;;;;;;;23.90;100.00;97698.69;5021131;28;19940;-79
2023/08/25 00:17:17;;;;;;;;;;;;;;;23.97;100.00;97705.09;5039871;28;19944;-79
2023/08/25 00:19:54;;;;;;;;;;;;;;;23.56;100.00;97706.47;5032479;28;19929;-80
2023/08/25 00:22:21;;;;;;;;;;;;;;;23.55;100.00;97710.31;5041291;28;19925;-80
2023/08/25 00:24:48;;;;;;;;;;;;;;;23.04;100.00;97695.75;5042792;28;19948;-80
2023/08/25 00:27:14;;;;;;;;;;;;;;;23.18;100.00;97711.66;5044414;28;19925;-80
2023/08/25 00:29:40;;;;;;;;;;;;;;;23.25;100.00;97695.53;5040402;28;19913;-80
2023/08/25 00:32:07;;;;;;;;;;;;;;;25.70;100.00;97692.16;5044966;28;19925;-79
2023/08/25 00:34:34;;;;;;;;;;;;;;;25.62;100.00;97685.03;5023633;28;19952;-79
2023/08/25 00:37:01;;;;;;;;;;;;;;;25.29;100.00;97684.78;5026157;28;19929;-80
2023/08/25 00:39:39;;;;;;;;;;;;;;;24.90;100.00;97681.38;5036756;28;19944;-79
2023/08/25 00:42:05;;;;;;;;;;;;;;;24.15;100.00;97670.06;5021923;28;19921;-80
2023/08/25 00:44:33;;;;;;;;;;;;;;;23.34;100.00;97676.28;5041544;28;19952;-79
2023/08/25 00:47:19;;;;;;;;;;;;;;;23.23;100.00;97676.03;5036057;28;19926;-79
2023/08/25 00:49:48;;;;;;;;;;;;;;;23.23;100.00;97686.13;5020947;28;19988;-79
2023/08/25 00:52:15;;;;;;;;;;;;;;;23.46;100.00;97677.00;5030843;28;19988;-80
2023/08/25 00:54:41;;;;;;;;;;;;;;;23.02;100.00;97679.00;5028116;28;19937;-80
2023/08/25 00:57:08;;;;;;;;;;;;;;;23.15;100.00;97685.13;5028207;28;19924;-80
2023/08/25 00:59:55;;;;;;;;;;;;;;;22.82;100.00;97685.44;5023234;28;19940;-80
2023/08/25 01:02:25;;;;;;;;;;;;;;;22.49;100.00;97677.50;5028651;28;19925;-80
2023/08/25 01:04:57;;;;;;;;;;;;;;;22.31;100.00;97678.13;5041913;28;19963;-80
2023/08/25 01:07:24;;;;;;;;;;;;;;;22.21;100.00;97667.72;5043353;28;19940;-80
2023/08/25 01:10:18;;;;;;;;;;;;;;;22.19;100.00;97670.78;5028002;28;19988;-80
2023/08/25 01:12:51;;;;;;;;;;;;;;;21.98;100.00;97675.59;5043190;28;19936;-80
2023/08/25 01:15:21;;;;;;;;;;;;;;;21.91;100.00;97680.81;5036942;28;20328;-80
2023/08/25 01:17:56;;;;;;;;;;;;;;;22.08;100.00;97675.13;5030201;28;19985;-80
2023/08/25 01:20:25;;;;;;;;;;;;;;;21.83;100.00;97673.53;5020619;28;19926;-80
2023/08/25 01:22:53;;;;;;;;;;;;;;;21.74;100.00;97667.44;5026455;28;20012;-80
2023/08/25 01:25:26;;;;;;;;;;;;;;;21.71;100.00;97673.53;5040397;28;19964;-80
2023/08/25 01:27:53;;;;;;;;;;;;;;;21.65;100.00;97664.03;5018132;28;19956;-79
2023/08/25 01:30:20;;;;;;;;;;;;;;;21.54;100.00;97675.34;5028284;28;19929;-79
2023/08/25 01:32:47;;;;;;;;;;;;;;;21.55;100.00;97681.59;5030261;28;19945;-79
2023/08/25 01:35:14;;;;;;;;;;;;;;;21.34;100.00;97678.97;5040461;28;19925;-79
2023/08/25 01:37:47;;;;;;;;;;;;;;;21.44;100.00;97664.16;5033774;28;19936;-79
2023/08/25 01:40:18;;;;;;;;;;;;;;;21.41;100.00;97675.72;5029359;28;19936;-79
2023/08/25 01:42:46;;;;;;;;;;;;;;;21.41;100.00;97662.91;5027150;28;19913;-79
2023/08/25 01:45:14;;;;;;;;;;;;;;;21.43;100.00;97676.94;5045288;28;19922;-79
2023/08/25 01:50:22;;;;;;;;;;;;;;;21.31;100.00;97666.06;5046938;28;19933;-79
2023/08/25 01:52:49;;;;;;;;;;;;;;;21.33;100.00;97671.94;5030358;28;19932;-79
2023/08/25 01:55:18;;;;;;;;;;;;;;;21.35;100.00;97666.97;5018510;28;19925;-79
2023/08/25 01:57:47;;;;;;;;;;;;;;;21.19;100.00;97660.63;5023170;28;19925;-79
2023/08/25 02:00:14;;;;;;;;;;;;;;;21.24;100.00;97657.69;5022117;28;19961;-79
2023/08/25 02:02:40;;;;;;;;;;;;;;;21.21;100.00;97647.50;5023879;28;19925;-79
2023/08/25 02:05:07;;;;;;;;;;;;;;;21.36;100.00;97649.53;5023197;28;19932;-80
2023/08/25 02:07:36;;;;;;;;;;;;;;;21.88;100.00;97651.56;5022203;28;19929;-80
2023/08/25 02:10:03;;;;;;;;;;;;;;;21.90;100.00;97649.31;5025618;28;19921;-80
2023/08/25 02:12:52;;;;;;;;;;;;;;;21.84;100.00;97634.34;5015458;28;19930;-79
2023/08/25 02:15:20;;;;;;;;;;;;;;;21.89;100.00;97643.09;5039139;28;19926;-79
2023/08/25 02:17:48;;;;;;;;;;;;;;;22.18;100.00;97642.00;5010779;28;19925;-79
2023/08/25 02:22:55;;;;;;;;;;;;;;;21.95;100.00;97638.19;5032257;28;19980;-80
2023/08/25 02:25:22;;;;;;;;;;;;;;;22.27;100.00;97636.44;5018455;28;19981;-80
2023/08/25 02:27:48;;;;;;;;;;;;;;;22.29;100.00;97624.06;5026984;28;19920;-79
2023/08/25 02:30:15;;;;;;;;;;;;;;;22.42;100.00;97617.44;5036264;28;19926;-80
2023/08/25 02:32:43;;;;;;;;;;;;;;;22.89;100.00;97625.72;5037126;28;19929;-80
2023/08/25 02:35:19;;;;;;;;;;;;;;;23.67;100.00;97619.50;5018684;28;19926;-80
2023/08/25 02:37:56;;;;;;;;;;;;;;;23.04;100.00;97615.97;5038659;28;19926;-79
2023/08/25 02:40:23;;;;;;;;;;;;;;;23.38;100.00;97617.19;5022964;28;19925;-79
2023/08/25 02:43:05;;;;;;;;;;;;;;;22.79;100.00;97612.63;5033849;28;19925;-79
2023/08/25 02:45:32;;;;;;;;;;;;;;;22.40;100.00;97610.75;5022232;28;19957;-79
2023/08/25 02:48:01;;;;;;;;;;;;;;;22.35;100.00;97606.34;5024640;28;19925;-80
2023/08/25 02:50:27;;;;;;;;;;;;;;;22.75;100.00;97600.84;5022039;28;19925;-79
2023/08/25 02:52:54;;;;;;;;;;;;;;;22.19;100.00;97610.16;5028656;28;19948;-79
2023/08/25 02:55:35;;;;;;;;;;;;;;;22.49;100.00;97604.03;5022059;28;19941;-79
2023/08/25 02:58:01;;;;;;;;;;;;;;;22.99;100.00;97608.84;5020173;28;19937;-79
2023/08/25 03:00:28;;;;;;;;;;;;;;;22.54;100.00;97606.50;5039794;28;19925;-80
2023/08/25 03:02:57;;;;;;;;;;;;;;;22.57;100.00;97611.22;5018428;28;19969;-80
2023/08/25 03:05:50;;;;;;;;;;;;;;;22.50;100.00;97599.34;5022508;28;19948;-78
2023/08/25 03:08:20;;;;;;;;;;;;;;;22.14;100.00;97605.75;5019266;28;19964;-79
2023/08/25 03:10:46;;;;;;;;;;;;;;;23.10;100.00;97607.19;5029735;28;19961;-79
2023/08/25 03:13:14;;;;;;;;;;;;;;;22.90;100.00;97608.22;5038987;28;19956;-80
2023/08/25 03:15:42;;;;;;;;;;;;;;;22.69;100.00;97601.44;5040716;28;19972;-80
2023/08/25 03:18:10;;;;;;;;;;;;;;;24.00;100.00;97597.22;5041588;28;20036;-80
2023/08/25 03:20:39;;;;;;;;;;;;;;;23.77;100.00;97605.28;5020214;28;19997;-80
2023/08/25 03:23:06;;;;;;;;;;;;;;;23.03;100.00;97608.94;5024561;28;19925;-80
2023/08/25 03:25:39;;;;;;;;;;;;;;;23.20;100.00;97603.16;5038982;28;19956;-80
2023/08/25 03:28:05;;;;;;;;;;;;;;;22.72;100.00;97606.97;5040599;28;19936;-80
2023/08/25 03:30:31;;;;;;;;;;;;;;;22.23;100.00;97609.13;5034391;28;19921;-80
2023/08/25 03:32:58;;;;;;;;;;;;;;;22.16;100.00;97611.63;5020760;28;19925;-80
2023/08/25 03:35:36;;;;;;;;;;;;;;;22.21;100.00;97622.28;5040367;28;19925;-79
2023/08/25 03:38:02;;;;;;;;;;;;;;;22.15;100.00;97623.66;5022382;28;19929;-79
2023/08/25 03:40:47;;;;;;;;;;;;;;;22.74;100.00;97626.50;5036582;28;19936;-79
2023/08/25 03:43:13;;;;;;;;;;;;;;;22.35;100.00;97622.66;5033327;28;19925;-79
2023/08/25 03:45:39;;;;;;;;;;;;;;;22.10;100.00;97623.88;5019204;28;20665;-79
2023/08/25 03:48:06;;;;;;;;;;;;;;;21.95;100.00;97616.44;5038116;28;19936;-79
2023/08/25 03:50:32;;;;;;;;;;;;;;;22.71;100.00;97610.06;5031698;28;19926;-79
2023/08/25 03:52:58;;;;;;;;;;;;;;;22.39;100.00;97611.88;5022612;28;19925;-79
2023/08/25 03:55:25;;;;;;;;;;;;;;;22.66;100.00;97605.66;5036144;28;19952;-79
2023/08/25 03:57:52;;;;;;;;;;;;;;;24.26;100.00;97608.31;5023259;28;19955;-79
2023/08/25 04:00:19;;;;;;;;;;;;;;;22.70;100.00;97606.56;5038443;28;19926;-79
2023/08/25 04:02:45;;;;;;;;;;;;;;;22.85;100.00;97603.06;5022090;28;19932;-79
2023/08/25 04:05:11;;;;;;;;;;;;;;;22.78;100.00;97596.63;5017336;28;19961;-79
2023/08/25 04:07:38;;;;;;;;;;;;;;;22.12;100.00;97608.03;5022420;28;19968;-79
2023/08/25 04:10:06;;;;;;;;;;;;;;;23.39;100.00;97603.28;5019416;28;19926;-79
2023/08/25 04:12:32;;;;;;;;;;;;;;;24.06;100.00;97601.25;5040190;28;19960;-79
2023/08/25 04:15:00;;;;;;;;;;;;;;;22.46;100.00;97593.03;5038469;28;19955;-79
2023/08/25 04:17:26;;;;;;;;;;;;;;;21.98;100.00;97588.56;5019697;28;19961;-79
2023/08/25 04:19:52;;;;;;;;;;;;;;;23.24;100.00;97605.97;5040832;28;19925;-79
2023/08/25 04:22:19;;;;;;;;;;;;;;;23.36;100.00;97590.31;5041735;28;19956;-79
2023/08/25 04:24:45;;;;;;;;;;;;;;;23.36;100.00;97587.59;5036383;28;20001;-79
2023/08/25 04:27:12;;;;;;;;;;;;;;;22.90;100.00;97585.69;5038862;28;19948;-79
2023/08/25 04:29:38;;;;;;;;;;;;;;;22.89;100.00;97581.38;5025797;28;19936;-79
2023/08/25 04:35:45;;;;;;;;;;;;;;;23.58;100.00;97583.47;5079449;28;19976;-74
2023/08/25 04:38:12;;;;;;;;;;;;;;;23.50;100.00;97582.50;5075213;28;20527;-74
2023/08/25 04:40:38;;;;;;;;;;;;;;;22.42;100.00;97582.06;5069949;28;19974;-73
2023/08/25 04:43:05;;;;;;;;;;;;;;;22.24;100.00;97580.00;5072084;28;19967;-74
2023/08/25 04:45:32;;;;;;;;;;;;;;;23.22;100.00;97587.25;5139532;22;19939;-73
2023/08/25 04:47:58;;;;;;;;;;;;;;;22.70;100.00;97571.16;5062447;28;19925;-74
2023/08/25 04:50:25;;;;;;;;;;;;;;;23.82;100.00;97571.50;5062573;28;19924;-74
2023/08/25 04:52:53;;;;;;;;;;;;;;;24.13;100.00;97571.41;5053627;28;19983;-74
2023/08/25 04:55:19;;;;;;;;;;;;;;;23.03;100.00;97562.66;5054442;28;20297;-74
2023/08/25 04:57:46;;;;;;;;;;;;;;;23.55;100.00;97554.19;5059565;28;19956;-74
2023/08/25 05:00:14;;;;;;;;;;;;;;;23.60;100.00;97549.25;5059524;28;19925;-74
2023/08/25 05:02:41;;;;;;;;;;;;;;;22.54;100.00;97551.25;5063537;28;20003;-74
2023/08/25 05:05:09;;;;;;;;;;;;;;;21.97;100.00;97548.94;5061809;28;19925;-74
2023/08/25 05:07:35;;;;;;;;;;;;;;;22.24;100.00;97545.44;5058852;28;19929;-73
2023/08/25 05:10:03;;;;;;;;;;;;;;;22.99;100.00;97550.91;5115644;22;19924;-79
2023/08/25 05:12:29;;;;;;;;;;;;;;;23.63;100.00;97542.28;5083345;28;19925;-79
2023/08/25 05:14:56;;;;;;;;;;;;;;;22.31;100.00;97542.09;5078132;28;19925;-79
2023/08/25 05:17:23;;;;;;;;;;;;;;;21.73;100.00;97548.97;5074980;28;19958;-79
2023/08/25 05:19:49;;;;;;;;;;;;;;;21.96;100.00;97544.63;5084561;28;19924;-79
2023/08/25 05:22:16;;;;;;;;;;;;;;;23.36;100.00;97537.75;5076793;28;19952;-79
2023/08/25 05:24:42;;;;;;;;;;;;;;;23.12;100.00;97544.19;5079419;28;19925;-79
2023/08/25 05:27:10;;;;;;;;;;;;;;;22.63;100.00;97540.19;5078237;28;19924;-79
2023/08/25 05:29:36;;;;;;;;;;;;;;;22.70;100.00;97535.78;5074351;28;19925;-78
2023/08/25 05:32:03;;;;;;;;;;;;;;;22.67;100.00;97536.47;5080254;28;19929;-79
2023/08/25 05:34:31;;;;;;;;;;;;;;;23.02;100.00;97529.19;5080811;28;19925;-79
2023/08/25 05:36:57;;;;;;;;;;;;;;;23.28;100.00;97531.34;5076173;28;20271;-79
2023/08/25 05:39:24;;;;;;;;;;;;;;;23.61;100.00;97534.44;5076331;28;20366;-79
2023/08/25 05:41:50;;;;;;;;;;;;;;;23.67;100.00;97534.19;5077171;28;19932;-79
2023/08/25 05:44:18;;;;;;;;;;;;;;;23.78;100.00;97537.91;5075493;28;20430;-78
2023/08/25 05:46:44;;;;;;;;;;;;;;;23.59;100.00;97535.94;5068221;28;19948;-78
2023/08/25 05:49:11;;;;;;;;;;;;;;;23.24;100.00;97529.69;5065593;28;19951;-78
2023/08/25 05:51:37;;;;;;;;;;;;;;;22.94;100.00;97537.53;5066845;28;19975;-78
2023/08/25 05:54:04;;;;;;;;;;;;;;;22.77;100.00;97548.78;5072164;28;19913;-79
2023/08/25 05:56:30;;;;;;;;;;;;;;;22.71;100.00;97533.84;5072603;28;19913;-79
2023/08/25 05:58:59;;;;;;;;;;;;;;;22.65;100.00;97529.78;5068043;28;19924;-79
2023/08/25 06:01:27;;;;;;;;;;;;;;;22.65;100.00;97524.34;5067125;28;19936;-79
2023/08/25 06:03:53;;;;;;;;;;;;;;;22.88;100.00;97536.22;5063797;28;19929;-79
2023/08/25 06:06:20;;;;;;;;;;;;;;;22.74;100.00;97544.03;5064637;28;19971;-79
2023/08/25 06:08:46;;;;;;;;;;;;;;;22.44;100.00;97538.97;5068444;28;19925;-78
2023/08/25 06:11:13;;;;;;;;;;;;;;;22.24;100.00;97537.25;5065723;28;19952;-78
2023/08/25 06:13:40;;;;;;;;;;;;;;;22.80;100.00;97529.03;5063111;28;19925;-78
2023/08/25 06:16:06;;;;;;;;;;;;;;;22.89;100.00;97527.69;5070685;28;19968;-78
2023/08/25 06:18:35;;;;;;;;;;;;;;;22.79;100.00;97535.59;5067605;28;19940;-78
2023/08/25 06:21:02;;;;;;;;;;;;;;;23.89;100.00;97549.84;5064902;28;19921;-78
2023/08/25 06:23:28;;;;;;;;;;;;;;;23.82;100.00;97545.03;5062141;28;19928;-78
2023/08/25 06:25:55;;;;;;;;;;;;;;;23.25;100.00;97533.97;5062157;28;19912;-79
2023/08/25 06:28:21;;;;;;;;;;;;;;;23.13;100.00;97540.31;5060855;28;19998;-79
2023/08/25 06:30:49;;;;;;;;;;;;;;;23.20;100.00;97529.59;5063387;28;19948;-79
2023/08/25 06:33:16;;;;;;;;;;;;;;;23.57;100.00;97527.34;5061692;28;20335;-79
2023/08/25 06:35:44;;;;;;;;;;;;;;;23.84;100.00;97526.38;5062534;28;19971;-79
2023/08/25 06:38:11;;;;;;;;;;;;;;;23.42;100.00;97528.19;5065264;28;19932;-78
2023/08/25 06:43:18;;;;;;;;;;;;;;;24.86;100.00;97518.56;5065453;28;19937;-80
2023/08/25 06:45:44;;;;;;;;;;;;;;;24.28;100.00;97523.34;5061355;28;19943;-77
2023/08/25 06:48:11;;;;;;;;;;;;;;;24.41;100.00;97501.00;5061246;28;19975;-77
2023/08/25 06:50:37;;;;;;;;;;;;;;;24.72;100.00;97510.91;5076869;28;19928;-78
2023/08/25 06:53:07;;;;;;;;;;;;;;;25.92;100.00;97507.25;5068165;28;20050;-79
2023/08/25 06:55:34;;;;;;;;;;;;;;;24.89;100.00;97504.16;5060910;28;19953;-79
2023/08/25 06:58:00;;;;;;;;;;;;;;;24.92;100.00;97503.44;5060134;28;19964;-79
2023/08/25 07:00:27;;;;;;;;;;;;;;;25.01;100.00;97490.31;5062476;28;19938;-78
2023/08/25 07:02:53;;;;;;;;;;;;;;;24.93;100.00;97502.28;5065397;28;19929;-78
2023/08/25 07:05:19;;;;;;;;;;;;;;;25.09;100.00;97483.81;5064565;28;19963;-78
2023/08/25 07:07:46;;;;;;;;;;;;;;;24.44;100.00;97483.91;5060770;28;19975;-78
2023/08/25 07:10:14;;;;;;;;;;;;;;;24.10;100.00;97476.63;5061231;28;19928;-79
2023/08/25 07:12:41;;;;;;;;;;;;;;;23.65;100.00;97485.44;5077242;28;19952;-78
2023/08/25 07:15:08;;;;;;;;;;;;;;;23.68;100.00;97490.19;5067538;28;19960;-78
2023/08/25 07:17:34;;;;;;;;;;;;;;;23.79;100.00;97488.47;5067418;28;19972;-78
2023/08/25 07:20:01;;;;;;;;;;;;;;;23.95;100.00;97491.13;5061167;28;19936;-78
2023/08/25 07:22:27;;;;;;;;;;;;;;;23.69;100.00;97480.06;5060701;28;19925;-78
2023/08/25 07:24:54;;;;;;;;;;;;;;;23.72;100.00;97484.81;5063549;28;19929;-78
2023/08/25 07:27:21;;;;;;;;;;;;;;;23.98;100.00;97482.22;5063750;28;19996;-78
2023/08/25 07:29:48;;;;;;;;;;;;;;;24.10;100.00;97482.88;5054448;28;19931;-77
2023/08/25 07:32:14;;;;;;;;;;;;;;;24.14;100.00;97483.72;5067903;28;19980;-77
2023/08/25 07:34:43;;;;;;;;;;;;;;;24.37;100.00;97486.50;5061645;28;20025;-78
2023/08/25 07:37:10;;;;;;;;;;;;;;;24.40;100.00;97482.25;5062078;28;19932;-77
2023/08/25 07:39:36;;;;;;;;;;;;;;;24.43;100.00;97485.03;5065794;28;19936;-77
2023/08/25 07:42:02;;;;;;;;;;;;;;;24.58;100.00;97494.25;5060086;28;20345;-77
2023/08/25 07:44:30;;;;;;;;;;;;;;;24.62;100.00;97506.03;5061260;28;19940;-77
2023/08/25 07:46:56;;;;;;;;;;;;;;;24.61;100.00;97504.47;5063694;28;19971;-77
2023/08/25 07:49:23;;;;;;;;;;;;;;;24.69;100.00;97506.97;5063777;28;20001;-77
2023/08/25 07:51:49;;;;;;;;;;;;;;;24.84;100.00;97510.75;5060052;28;19925;-77
2023/08/25 07:54:16;;;;;;;;;;;;;;;24.73;100.00;97508.97;5058754;28;19989;-76
2023/08/25 07:56:42;;;;;;;;;;;;;;;24.52;100.00;97510.16;5061275;28;19955;-77
2023/08/25 07:59:10;;;;;;;;;;;;;;;24.55;100.00;97501.25;5060738;28;20001;-77
2023/08/25 08:01:38;;;;;;;;;;;;;;;24.90;100.00;97511.22;5066800;28;19935;-77
2023/08/25 08:04:04;;;;;;;;;;;;;;;24.72;100.00;97513.63;5058613;28;19928;-77
2023/08/25 08:06:31;;;;;;;;;;;;;;;24.56;100.00;97519.22;5060078;28;19960;-77
2023/08/25 08:08:57;;;;;;;;;;;;;;;24.60;100.00;97525.50;5062142;28;19926;-77
2023/08/25 08:11:23;;;;;;;;;;;;;;;24.63;100.00;97524.00;5064542;28;19999;-77
2023/08/25 08:13:50;;;;;;;;;;;;;;;24.53;100.00;97522.66;5060078;28;19924;-77
2023/08/25 08:16:16;;;;;;;;;;;;;;;24.56;100.00;97529.34;5063188;28;19952;-77
2023/08/25 08:18:44;;;;;;;;;;;;;;;24.61;100.00;97527.09;5061078;28;20469;-77
2023/08/25 08:21:10;;;;;;;;;;;;;;;24.64;100.00;97520.91;5059986;28;19925;-78
2023/08/25 08:23:37;;;;;;;;;;;;;;;24.87;100.00;97525.59;5065307;28;20242;-78
2023/08/25 08:26:04;;;;;;;;;;;;;;;24.87;100.00;97525.59;5059261;28;19971;-78
2023/08/25 08:28:30;;;;;;;;;;;;;;;25.20;100.00;97539.41;5060731;28;20017;-77
2023/08/25 08:33:37;;;;;;;;;;;;;;;25.70;100.00;97554.63;5063145;28;19925;-77
2023/08/25 08:36:05;;;;;;;;;;;;;;;26.29;100.00;97565.56;5060431;28;19996;-79
2023/08/25 08:38:31;;;;;;;;;;;;;;;26.37;100.00;97587.56;5057412;28;19940;-78
2023/08/25 08:41:00;;;;;;;;;;;;;;;26.02;100.00;97607.81;5054316;28;19924;-78
2023/08/25 08:43:27;;;;;;;;;;;;;;;25.96;100.00;97603.03;5066825;28;19959;-77
2023/08/25 08:45:55;;;;;;;;;;;;;;;25.97;100.00;97613.59;5060511;28;19947;-77
2023/08/25 08:48:21;;;;;;;;;;;;;;;26.37;100.00;97623.16;5059412;28;19984;-77
2023/08/25 08:50:48;;;;;;;;;;;;;;;26.51;100.00;97623.31;5056369;28;19932;-77
2023/08/25 08:53:16;;;;;;;;;;;;;;;26.66;100.00;97639.53;5060367;28;19925;-77
2023/08/25 08:55:43;;;;;;;;;;;;;;;26.76;100.00;97633.38;5064195;28;20060;-77
2023/08/25 08:58:09;;;;;;;;;;;;;;;26.86;100.00;97639.38;5061193;28;19952;-77
2023/08/25 09:00:36;;;;;;;;;;;;;;;26.79;100.00;97646.34;5057777;28;19932;-77
2023/08/25 09:03:09;;;;;;;;;;;;;;;26.62;100.00;97633.22;5060174;28;19924;-77
2023/08/25 09:05:37;;;;;;;;;;;;;;;26.76;100.00;97627.91;5058406;28;19929;-77
2023/08/25 09:08:06;;;;;;;;;;;;;;;26.47;100.00;97631.47;5066167;28;19936;-77
2023/08/25 09:10:33;;;;;;;;;;;;;;;26.33;100.00;97620.38;5058781;28;19928;-78
2023/08/25 09:13:00;;;;;;;;;;;;;;;26.50;100.00;97629.94;5058836;28;19928;-77
2023/08/25 09:15:28;;;;;;;;;;;;;;;26.78;100.00;97624.78;5063426;28;19925;-77
2023/08/25 09:17:59;;;;;;;;;;;;;;;26.74;100.00;97641.19;5062794;28;19926;-77
2023/08/25 09:20:26;;;;;;;;;;;;;;;27.05;100.00;97653.66;5062867;28;19960;-77
2023/08/25 09:22:55;;;;;;;;;;;;;;;27.20;100.00;97662.81;5063406;28;19933;-77
2023/08/25 09:25:21;;;;;;;;;;;;;;;27.31;100.00;97666.44;5062943;28;19925;-77
2023/08/25 09:27:53;;;;;;;;;;;;;;;27.31;100.00;97682.91;5060175;28;19964;-77
2023/08/25 09:30:20;;;;;;;;;;;;;;;27.30;100.00;97703.25;5067401;28;19952;-78
2023/08/25 09:32:46;;;;;;;;;;;;;;;27.33;100.00;97692.31;5069147;28;19964;-78
2023/08/25 09:35:13;;;;;;;;;;;;;;;27.29;100.00;97698.94;5061051;28;19964;-77
2023/08/25 09:37:41;;;;;;;;;;;;;;;27.25;100.00;97709.88;5063932;28;19968;-77
2023/08/25 09:40:09;;;;;;;;;;;;;;;27.31;100.00;97704.84;5064192;28;19925;-77
2023/08/25 09:42:35;;;;;;;;;;;;;;;27.27;100.00;97706.75;5066955;28;19935;-77
2023/08/25 09:45:03;;;;;;;;;;;;;;;27.31;100.00;97713.06;5062487;28;19929;-77
2023/08/25 09:47:30;;;;;;;;;;;;;;;27.26;100.00;97705.97;5061951;28;20008;-78
2023/08/25 09:49:57;;;;;;;;;;;;;;;27.28;100.00;97702.84;5065400;28;19964;-77
2023/08/25 09:52:26;;;;;;;;;;;;;;;27.23;100.00;97706.69;5065509;28;19925;-77
2023/08/25 09:54:53;;;;;;;;;;;;;;;27.26;100.00;97691.47;5063013;28;20310;-77
2023/08/25 09:57:20;;;;;;;;;;;;;;;27.29;100.00;97698.94;5061074;28;20006;-77
2023/08/25 09:59:46;;;;;;;;;;;;;;;27.41;100.00;97690.44;5063630;28;19928;-77
2023/08/25 10:02:14;;;;;;;;;;;;;;;27.39;100.00;97681.78;5070892;28;19931;-77
2023/08/25 10:04:41;;;;;;;;;;;;;;;27.42;100.00;97675.53;5061195;28;19932;-77
2023/08/25 10:07:07;;;;;;;;;;;;;;;27.33;100.00;97673.13;5061917;28;19924;-77
2023/08/25 10:09:36;;;;;;;;;;;;;;;27.49;100.00;97653.69;5062918;28;19936;-77
2023/08/25 10:12:04;;;;;;;;;;;;;;;27.43;100.00;97651.69;5064759;28;19925;-78
2023/08/25 10:14:33;;;;;;;;;;;;;;;27.44;100.00;97656.81;5066439;28;20006;-78
2023/08/25 10:17:01;;;;;;;;;;;;;;;27.33;100.00;97644.91;5062020;28;19947;-77
2023/08/25 10:19:29;;;;;;;;;;;;;;;27.36;100.00;97635.91;5057812;28;20418;-77
2023/08/25 10:21:56;;;;;;;;;;;;;;;27.31;100.00;97622.56;5061543;28;20247;-77
2023/08/25 10:24:23;;;;;;;;;;;;;;;27.15;100.00;97608.31;5068822;28;19925;-77
2023/08/25 10:26:50;;;;;;;;;;;;;;;27.07;100.00;97618.47;5060844;28;19939;-77
2023/08/25 10:29:18;;;;;;;;;;;;;;;27.08;100.00;97611.03;5060471;28;19925;-78
2023/08/25 10:31:48;;;;;;;;;;;;;;;27.10;100.00;97600.47;5062878;28;19925;-78
2023/08/25 10:34:35;;;;;;;;;;;;;;;26.90;100.00;97602.63;5061106;28;19997;-78
2023/08/25 10:37:07;;;;;;;;;;;;;;;26.85;100.00;97602.19;5054973;28;19936;-77
2023/08/25 10:39:50;;;;;;;;;;;;;;;26.78;100.00;97605.59;5066229;28;19925;-77
2023/08/25 10:42:20;;;;;;;;;;;;;;;26.97;100.00;97616.41;5059641;28;19939;-77
2023/08/25 10:44:47;;;;;;;;;;;;;;;27.07;100.00;97620.41;5059907;28;19925;-78
2023/08/25 10:47:18;;;;;;;;;;;;;;;27.16;100.00;97634.59;5062222;28;19925;-78
2023/08/25 10:49:46;;;;;;;;;;;;;;;27.29;100.00;97642.16;5064898;28;19925;-77
2023/08/25 10:52:15;;;;;;;;;;;;;;;27.38;100.00;97641.84;5063043;28;19925;-78
2023/08/25 10:54:42;;;;;;;;;;;;;;;27.48;100.00;97646.63;5060825;28;19932;-78
2023/08/25 10:57:21;;;;;;;;;;;;;;;27.39;100.00;97637.13;5061009;28;19925;-78
2023/08/25 10:59:51;;;;;;;;;;;;;;;27.50;100.00;97641.56;5065977;28;19996;-77
2023/08/25 11:02:34;;;;;;;;;;;;;;;27.59;100.00;97636.53;5063629;28;19925;-78
2023/08/25 11:05:19;;;;;;;;;;;;;;;27.62;100.00;97644.00;5075090;28;19964;-78
2023/08/25 11:07:47;;;;;;;;;;;;;;;27.58;100.00;97637.69;5060444;28;19929;-78
2023/08/25 11:10:14;;;;;;;;;;;;;;;27.54;100.00;97638.84;5060254;28;19955;-78
2023/08/25 11:12:41;;;;;;;;;;;;;;;27.60;100.00;97640.88;5062094;28;19979;-78
2023/08/25 11:15:08;;;;;;;;;;;;;;;27.60;100.00;97632.63;5063707;28;19968;-78
2023/08/25 11:17:35;;;;;;;;;;;;;;;27.49;100.00;97634.50;5067754;28;19924;-78
2023/08/25 11:20:01;;;;;;;;;;;;;;;27.52;100.00;97631.00;5059913;28;19932;-79
2023/08/25 11:22:28;;;;;;;;;;;;;;;27.54;100.00;97628.69;5061878;28;19972;-77
2023/08/25 11:24:55;;;;;;;;;;;;;;;27.55;100.00;97630.22;5064630;28;19925;-78
2023/08/25 11:27:23;;;;;;;;;;;;;;;27.48;100.00;97608.22;5065706;28;19960;-78
2023/08/25 11:29:50;;;;;;;;;;;;;;;27.58;100.00;97618.50;5052348;28;19972;-78
2023/08/25 11:32:17;;;;;;;;;;;;;;;27.61;100.00;97616.94;5055339;28;19929;-78
2023/08/25 11:34:47;;;;;;;;;;;;;;;27.54;100.00;97627.88;5062145;28;19951;-78
2023/08/25 11:37:14;;;;;;;;;;;;;;;27.51;100.00;97632.19;5060487;28;19925;-78
2023/08/25 11:39:42;;;;;;;;;;;;;;;27.62;100.00;97635.78;5067451;28;19924;-78
2023/08/25 11:42:10;;;;;;;;;;;;;;;27.58;100.00;97629.47;5061302;28;19925;-78
2023/08/25 11:44:39;;;;;;;;;;;;;;;27.61;100.00;97633.41;5060104;28;19940;-78
2023/08/25 11:47:06;;;;;;;;;;;;;;;27.61;100.00;97633.41;5061651;28;20434;-78
2023/08/25 11:49:33;;;;;;;;;;;;;;;27.74;100.00;97631.94;5065883;28;19952;-77
2023/08/25 11:52:00;;;;;;;;;;;;;;;27.79;100.00;97635.09;5061790;28;19965;-79
2023/08/25 11:54:26;;;;;;;;;;;;;;;27.59;100.00;97628.31;5061109;28;19933;-78
2023/08/25 11:56:53;;;;;;;;;;;;;;;27.57;100.00;97610.66;5062540;28;19925;-78
2023/08/25 11:59:21;;;;;;;;;;;;;;;27.61;100.00;97622.44;5059601;28;19925;-78
2023/08/25 12:01:49;;;;;;;;;;;;;;;27.73;100.00;97635.88;5060157;28;19955;-78
2023/08/25 12:04:22;;;;;;;;;;;;;;;27.68;100.00;97647.97;5060172;28;19924;-78
2023/08/25 12:06:50;;;;;;;;;;;;;;;27.72;100.00;97637.81;5049565;28;20008;-78
2023/08/25 12:09:17;;;;;;;;;;;;;;;27.87;100.00;97634.00;5050032;28;19925;-78
2023/08/25 12:11:43;;;;;;;;;;;;;;;28.06;100.00;97624.72;5061263;28;19925;-78
2023/08/25 12:14:23;;;;;;;;;;;;;;;27.91;100.00;97630.47;5062784;28;19994;-78
2023/08/25 12:16:51;;;;;;;;;;;;;;;27.99;100.00;97632.09;5063133;28;19925;-77
2023/08/25 12:19:17;;;;;;;;;;;;;;;28.24;100.00;97633.03;5060342;28;19946;-78
2023/08/25 12:21:43;;;;;;;;;;;;;;;28.32;100.00;97629.13;5060881;28;19948;-78
2023/08/25 12:24:10;;;;;;;;;;;;;;;28.06;100.00;97641.19;5067954;28;20004;-78
2023/08/25 12:26:36;;;;;;;;;;;;;;;28.28;100.00;97639.34;5059354;28;19952;-77
2023/08/25 12:29:02;;;;;;;;;;;;;;;28.32;100.00;97634.63;5059695;28;19968;-77
2023/08/25 12:31:29;;;;;;;;;;;;;;;28.35;100.00;97634.66;5059349;28;19948;-77
2023/08/25 12:33:56;;;;;;;;;;;;;;;28.17;100.00;97627.50;5062989;28;19956;-78
2023/08/25 12:36:24;;;;;;;;;;;;;;;28.11;100.00;97627.09;5064470;28;19995;-78
2023/08/25 12:38:50;;;;;;;;;;;;;;;28.36;100.00;97608.78;5059934;28;19960;-78
2023/08/25 12:41:19;;;;;;;;;;;;;;;28.13;100.00;97611.00;5059359;28;20147;-79
2023/08/25 12:43:45;;;;;;;;;;;;;;;28.30;100.00;97612.28;5059661;28;19924;-78
2023/08/25 12:46:12;;;;;;;;;;;;;;;28.24;100.00;97600.88;5066350;28;19982;-78
2023/08/25 12:48:38;;;;;;;;;;;;;;;28.21;100.00;97607.13;5059928;28;19960;-78
2023/08/25 12:51:06;;;;;;;;;;;;;;;28.07;100.00;97617.28;5058194;28;19956;-78
2023/08/25 12:53:32;;;;;;;;;;;;;;;28.14;100.00;97618.09;5060734;28;19929;-78